createdAt,value
2022-12-13T00:01:45.433Z,35.42
2022-12-13T00:04:48.596Z,35.53
2022-12-13T00:07:53.116Z,35.35
2022-12-13T00:11:01.241Z,35.17
2022-12-13T00:14:04.315Z,35.60
2022-12-13T00:17:07.739Z,35.37
2022-12-13T00:20:11.438Z,35.36
2022-12-13T00:23:15.867Z,35.11
2022-12-13T00:26:20.923Z,35.62
2022-12-13T00:29:23.939Z,35.04
2022-12-13T00:32:27.031Z,35.07
2022-12-13T00:35:30.041Z,34.83
2022-12-13T00:38:35.003Z,35.35
2022-12-13T00:41:38.042Z,34.93
2022-12-13T00:44:41.042Z,35.16
2022-12-13T00:47:44.527Z,34.78
2022-12-13T00:50:47.495Z,35.17
2022-12-13T00:53:52.170Z,34.80
2022-12-13T00:56:55.199Z,34.93
2022-12-13T00:59:59.702Z,34.87
2022-12-13T01:03:20.350Z,35.02
2022-12-13T01:06:27.424Z,34.98
2022-12-13T01:09:32.847Z,35.02
2022-12-13T01:12:36.151Z,34.74
2022-12-13T01:15:42.079Z,34.70
2022-12-13T01:18:45.229Z,35.03
2022-12-13T01:21:48.319Z,35.03
2022-12-13T01:24:52.882Z,35.03
2022-12-13T01:27:55.928Z,34.53
2022-12-13T01:31:01.733Z,34.85
2022-12-13T01:34:13.015Z,34.86
2022-12-13T01:37:17.672Z,34.88
2022-12-13T01:40:22.420Z,34.74
2022-12-13T01:43:50.538Z,35.01
2022-12-13T01:46:53.668Z,34.53
2022-12-13T01:49:59.769Z,35.12
2022-12-13T01:53:03.040Z,34.69
2022-12-13T01:56:12.888Z,34.54
2022-12-13T01:59:19.149Z,34.88
2022-12-13T02:02:23.984Z,34.43
2022-12-13T02:05:31.934Z,34.65
2022-12-13T02:08:36.344Z,34.52
2022-12-13T02:11:43.691Z,34.39
2022-12-13T02:14:46.797Z,34.21
2022-12-13T02:18:15.942Z,34.35
2022-12-13T02:21:27.655Z,34.32
2022-12-13T02:25:03.694Z,34.48
2022-12-13T02:28:31.757Z,34.18
2022-12-13T02:31:44.132Z,34.33
2022-12-13T02:34:51.454Z,34.47
2022-12-13T02:38:01.960Z,34.41
2022-12-13T02:41:15.052Z,33.99
2022-12-13T02:44:23.341Z,34.04
2022-12-13T02:47:31.005Z,34.19
2022-12-13T02:50:35.334Z,34.13
2022-12-13T02:53:41.116Z,33.91
2022-12-13T02:56:44.357Z,34.12
2022-12-13T02:59:47.964Z,34.24
2022-12-13T03:03:12.145Z,33.75
2022-12-13T03:06:34.729Z,33.86
2022-12-13T03:09:50.606Z,33.98
2022-12-13T03:13:15.540Z,33.95
2022-12-13T03:16:28.513Z,34.06
2022-12-13T03:19:33.059Z,33.62
2022-12-13T03:25:39.141Z,33.66
2022-12-13T03:28:42.946Z,33.82
2022-12-13T03:31:46.782Z,34.01
2022-12-13T03:34:53.475Z,33.36
2022-12-13T03:38:05.642Z,33.79
2022-12-13T03:41:12.374Z,33.58
2022-12-13T03:44:15.470Z,33.53
2022-12-13T03:47:18.760Z,33.91
2022-12-13T03:50:27.144Z,33.90
2022-12-13T03:53:33.132Z,33.36
2022-12-13T03:56:36.922Z,33.52
2022-12-13T03:59:39.979Z,33.75
2022-12-13T04:02:43.009Z,33.72
2022-12-13T04:05:47.410Z,33.15
2022-12-13T04:08:51.221Z,33.17
2022-12-13T04:12:11.850Z,33.34
2022-12-13T04:15:15.186Z,34.23
2022-12-13T04:18:18.933Z,31.63
2022-12-13T04:21:23.364Z,30.22
2022-12-13T04:24:30.792Z,29.09
2022-12-13T04:27:34.942Z,28.35
2022-12-13T04:30:38.345Z,28.87
2022-12-13T04:33:41.317Z,28.23
2022-12-13T04:36:45.701Z,27.82
2022-12-13T04:39:48.702Z,28.07
2022-12-13T04:42:54.136Z,27.84
2022-12-13T04:45:58.875Z,27.64
2022-12-13T04:49:02.203Z,27.58
2022-12-13T04:52:06.612Z,27.56
2022-12-13T04:55:10.332Z,26.31
2022-12-13T04:58:16.082Z,30.88
2022-12-13T05:01:21.440Z,30.56
2022-12-13T05:04:30.550Z,31.07
2022-12-13T05:07:42.161Z,30.59
2022-12-13T05:10:46.180Z,29.61
2022-12-13T05:13:49.269Z,29.87
2022-12-13T05:16:53.438Z,29.24
2022-12-13T05:19:56.490Z,30.77
2022-12-13T05:23:00.980Z,29.43
2022-12-13T05:26:05.468Z,29.49
2022-12-13T05:29:08.473Z,29.14
2022-12-13T05:32:11.556Z,29.33
2022-12-13T05:35:23.113Z,29.62
2022-12-13T05:38:28.299Z,29.59
2022-12-13T05:41:37.040Z,29.70
2022-12-13T05:44:40.015Z,30.22
2022-12-13T05:47:42.996Z,30.55
2022-12-13T05:50:46.051Z,30.53
2022-12-13T05:53:53.383Z,30.29
2022-12-13T05:56:56.746Z,30.27
2022-12-13T05:59:59.786Z,30.90
2022-12-13T06:03:02.909Z,30.38
2022-12-13T06:06:07.606Z,30.89
2022-12-13T06:09:12.082Z,30.69
2022-12-13T06:12:30.949Z,31.03
2022-12-13T06:15:35.460Z,30.87
2022-12-13T06:21:55.039Z,30.95
2022-12-13T06:24:59.408Z,30.93
2022-12-13T06:28:02.425Z,30.93
2022-12-13T06:31:06.419Z,31.14
2022-12-13T06:34:14.318Z,31.09
2022-12-13T06:37:18.358Z,31.08
2022-12-13T06:40:23.331Z,31.25
2022-12-13T06:43:26.507Z,31.02
2022-12-13T06:46:29.625Z,31.18
2022-12-13T06:49:32.739Z,31.09
2022-12-13T06:52:35.778Z,30.99
2022-12-13T06:55:40.186Z,30.99
2022-12-13T06:58:43.944Z,31.10
2022-12-13T07:01:50.471Z,31.19
2022-12-13T07:04:54.817Z,31.45
2022-12-13T07:07:57.913Z,31.24
2022-12-13T07:11:02.578Z,30.96
2022-12-13T07:14:05.616Z,31.20
2022-12-13T07:17:08.695Z,30.99
2022-12-13T07:20:13.985Z,30.70
2022-12-13T07:23:17.136Z,30.85
2022-12-13T07:26:28.944Z,31.25
2022-12-13T07:29:31.985Z,30.91
2022-12-13T07:32:35.002Z,30.92
2022-12-13T07:35:38.366Z,30.99
2022-12-13T07:38:41.384Z,30.84
2022-12-13T07:41:45.920Z,30.89
2022-12-13T07:44:48.968Z,30.99
2022-12-13T07:47:52.220Z,31.17
2022-12-13T07:50:55.341Z,30.79
2022-12-13T07:53:59.257Z,31.13
2022-12-13T07:57:04.621Z,31.53
2022-12-13T08:00:08.830Z,31.14
2022-12-13T08:03:24.142Z,31.65
2022-12-13T08:06:27.995Z,31.43
2022-12-13T08:09:31.083Z,31.43
2022-12-13T08:12:35.524Z,31.26
2022-12-13T08:15:38.567Z,31.75
2022-12-13T08:18:41.821Z,31.79
2022-12-13T08:21:54.532Z,31.81
2022-12-13T08:24:59.110Z,32.24
2022-12-13T08:28:03.587Z,32.48
2022-12-13T08:31:08.792Z,31.53
2022-12-13T08:34:11.980Z,31.48
2022-12-13T08:37:15.312Z,31.62
2022-12-13T08:40:18.466Z,31.82
2022-12-13T08:43:24.817Z,31.91
2022-12-13T08:46:28.103Z,31.94
2022-12-13T08:49:31.105Z,31.73
2022-12-13T08:52:40.093Z,31.67
2022-12-13T08:55:44.334Z,32.83
2022-12-13T08:58:51.544Z,31.31
2022-12-13T09:01:57.599Z,31.57
2022-12-13T09:05:03.701Z,31.66
2022-12-13T09:08:23.643Z,31.57
2022-12-13T09:11:34.649Z,31.37
2022-12-13T09:14:45.315Z,31.86
2022-12-13T09:17:52.464Z,31.53
2022-12-13T09:21:10.822Z,31.49
2022-12-13T09:24:23.815Z,31.12
2022-12-13T09:27:29.057Z,31.25
2022-12-13T09:30:33.682Z,31.39
2022-12-13T09:33:37.541Z,31.70
2022-12-13T09:36:44.796Z,32.06
2022-12-13T09:39:48.660Z,31.99
2022-12-13T09:43:12.397Z,31.86
2022-12-13T09:46:34.799Z,31.62
2022-12-13T09:49:51.901Z,31.70
2022-12-13T09:52:59.875Z,31.92
2022-12-13T09:56:10.509Z,31.86
2022-12-13T09:59:15.710Z,31.38
2022-12-13T10:02:28.820Z,31.57
2022-12-13T10:05:39.098Z,31.42
2022-12-13T10:08:46.189Z,31.46
2022-12-13T10:11:51.217Z,31.78
2022-12-13T10:14:59.502Z,31.53
2022-12-13T10:18:05.441Z,31.80
2022-12-13T10:21:12.786Z,31.59
2022-12-13T10:24:32.910Z,31.83
2022-12-13T10:27:41.545Z,31.44
2022-12-13T10:30:46.480Z,31.62
2022-12-13T10:33:56.218Z,31.65
2022-12-13T10:36:59.635Z,31.32
2022-12-13T10:40:04.943Z,31.40
2022-12-13T10:43:14.520Z,31.61
2022-12-13T10:46:25.288Z,31.57
2022-12-13T10:49:38.676Z,31.02
2022-12-13T10:52:48.569Z,30.92
2022-12-13T10:56:02.043Z,31.29
2022-12-13T10:59:17.175Z,31.05
2022-12-13T11:02:33.122Z,31.24
2022-12-13T11:05:40.617Z,31.40
2022-12-13T11:08:43.609Z,31.50
2022-12-13T11:11:46.775Z,31.52
2022-12-13T11:14:54.214Z,31.22
2022-12-13T11:17:59.795Z,31.23
2022-12-13T11:21:07.871Z,31.16
2022-12-13T11:24:16.899Z,31.37
2022-12-13T11:27:50.968Z,31.18
2022-12-13T11:31:02.754Z,31.57
2022-12-13T11:34:18.091Z,31.64
2022-12-13T11:37:29.840Z,31.22
2022-12-13T11:40:36.976Z,31.60
2022-12-13T11:43:47.061Z,31.21
2022-12-13T11:46:53.469Z,31.13
2022-12-13T11:49:58.651Z,31.60
2022-12-13T11:53:20.505Z,31.46
2022-12-13T11:56:26.879Z,31.45
2022-12-13T11:59:39.767Z,31.68
2022-12-13T12:02:49.081Z,31.26
2022-12-13T12:05:56.321Z,30.96
2022-12-13T12:09:02.842Z,31.50
2022-12-13T12:12:11.316Z,31.34
2022-12-13T12:15:26.781Z,31.33
2022-12-13T12:18:30.399Z,31.03
2022-12-13T12:22:12.241Z,31.42
2022-12-13T12:25:17.957Z,31.11
2022-12-13T12:28:31.999Z,31.43
2022-12-13T12:31:51.226Z,31.47
2022-12-13T12:35:06.114Z,31.30
2022-12-13T12:38:25.001Z,31.05
2022-12-13T12:41:41.967Z,31.26
2022-12-13T12:45:01.896Z,31.40
2022-12-13T12:51:51.402Z,31.71
2022-12-13T12:55:04.220Z,31.62
2022-12-13T12:58:18.243Z,31.42
2022-12-13T13:01:43.509Z,31.78
2022-12-13T13:04:53.741Z,31.66
2022-12-13T13:08:02.246Z,31.94
2022-12-13T13:11:23.740Z,31.11
2022-12-13T13:14:34.932Z,31.58
2022-12-13T13:17:48.581Z,31.31
2022-12-13T13:21:28.406Z,31.56
2022-12-13T13:24:33.229Z,31.57
2022-12-13T13:27:41.909Z,31.34
2022-12-13T13:31:05.921Z,31.72
2022-12-13T13:34:23.690Z,31.30
2022-12-13T13:37:47.449Z,31.39
2022-12-13T13:40:51.037Z,31.62
2022-12-13T13:43:54.145Z,31.17
2022-12-13T13:47:15.119Z,31.21
2022-12-13T13:50:49.835Z,31.57
2022-12-13T13:54:31.004Z,31.57
2022-12-13T14:01:51.959Z,30.98
2022-12-13T14:05:30.146Z,31.51
2022-12-13T14:08:42.159Z,31.09
2022-12-13T14:12:24.161Z,31.52
2022-12-13T14:16:20.365Z,31.24
2022-12-13T14:19:59.081Z,31.24
2022-12-13T14:23:08.205Z,31.50
2022-12-13T14:26:25.290Z,31.33
2022-12-13T14:29:31.763Z,31.07
2022-12-13T14:32:39.540Z,31.29
2022-12-13T14:35:52.226Z,30.71
2022-12-13T14:39:01.848Z,31.21
2022-12-13T14:42:25.032Z,31.30
2022-12-13T14:45:31.170Z,31.03
2022-12-13T14:48:37.436Z,31.02
2022-12-13T14:51:40.585Z,31.13
2022-12-13T14:54:48.677Z,31.01
2022-12-13T14:57:55.535Z,31.00
2022-12-13T15:00:58.643Z,30.94
2022-12-13T15:04:17.316Z,31.05
2022-12-13T15:07:27.128Z,30.96
2022-12-13T15:10:38.971Z,30.87
2022-12-13T15:13:46.082Z,31.29
2022-12-13T15:16:50.607Z,30.75
2022-12-13T15:19:53.791Z,31.18
2022-12-13T15:23:01.891Z,31.00
2022-12-13T15:26:09.520Z,30.66
2022-12-13T15:29:19.306Z,31.10
2022-12-13T15:32:23.923Z,30.94
2022-12-13T15:35:27.915Z,30.80
2022-12-13T15:38:31.399Z,31.17
2022-12-13T15:41:37.171Z,30.85
2022-12-13T15:44:48.133Z,30.67
2022-12-13T15:47:52.627Z,30.76
2022-12-13T15:51:07.797Z,31.15
2022-12-13T15:54:21.930Z,31.10
2022-12-13T15:57:26.847Z,30.96
2022-12-13T16:00:34.665Z,30.97
2022-12-13T16:03:43.582Z,30.73
2022-12-13T16:06:52.792Z,30.72
2022-12-13T16:09:56.478Z,30.93
2022-12-13T16:13:07.979Z,31.06
2022-12-13T16:16:27.994Z,30.80
2022-12-13T16:19:32.296Z,30.80
2022-12-13T16:22:35.338Z,30.93
2022-12-13T16:25:38.400Z,31.09
2022-12-13T16:28:41.784Z,30.70
2022-12-13T16:31:47.045Z,30.56
2022-12-13T16:34:50.226Z,30.38
2022-12-13T16:37:53.737Z,30.54
2022-12-13T16:41:09.305Z,29.98
2022-12-13T16:44:22.067Z,30.20
2022-12-13T16:47:41.513Z,30.06
2022-12-13T16:50:57.867Z,29.97
2022-12-13T16:54:01.187Z,29.93
2022-12-13T16:57:04.367Z,29.68
2022-12-13T17:00:10.378Z,29.93
2022-12-13T17:03:15.884Z,30.05
2022-12-13T17:06:24.799Z,29.68
2022-12-13T17:09:27.796Z,29.95
2022-12-13T17:12:30.935Z,30.02
2022-12-13T17:15:34.003Z,30.12
2022-12-13T17:18:40.965Z,29.63
2022-12-13T17:21:44.272Z,29.93
2022-12-13T17:24:47.539Z,29.68
2022-12-13T17:27:50.666Z,29.67
2022-12-13T17:30:55.088Z,29.72
2022-12-13T17:33:59.968Z,29.59
2022-12-13T17:37:08.533Z,29.55
2022-12-13T17:40:13.429Z,29.86
2022-12-13T17:43:26.287Z,29.78
2022-12-13T17:46:36.082Z,29.71
2022-12-13T17:49:40.825Z,30.01
2022-12-13T17:52:43.899Z,30.13
2022-12-13T17:55:56.855Z,30.31
2022-12-13T17:58:59.954Z,30.56
2022-12-13T18:02:02.944Z,30.48
2022-12-13T18:05:10.987Z,30.27
2022-12-13T18:08:19.086Z,30.32
2022-12-13T18:11:37.633Z,30.51
2022-12-13T18:14:40.813Z,30.32
2022-12-13T18:18:10.226Z,30.52
2022-12-13T18:21:10.486Z,30.56
2022-12-13T18:24:13.673Z,30.69
2022-12-13T18:27:16.683Z,30.67
2022-12-13T18:30:19.921Z,30.82
2022-12-13T18:33:23.159Z,30.84
2022-12-13T18:36:27.921Z,31.27
2022-12-13T18:39:31.557Z,31.84
2022-12-13T18:42:34.687Z,32.40
2022-12-13T18:45:37.686Z,32.52
2022-12-13T18:48:41.037Z,32.46
2022-12-13T18:51:45.486Z,32.50
2022-12-13T18:54:54.163Z,32.41
2022-12-13T18:57:57.877Z,32.78
2022-12-13T19:01:03.057Z,32.58
2022-12-13T19:04:06.378Z,32.78
2022-12-13T19:07:10.892Z,32.91
2022-12-13T19:10:13.884Z,33.13
2022-12-13T19:13:16.918Z,32.88
2022-12-13T19:16:22.263Z,33.18
2022-12-13T19:19:25.422Z,32.96
2022-12-13T19:22:30.450Z,32.99
2022-12-13T19:25:33.507Z,33.32
2022-12-13T19:28:37.320Z,33.01
2022-12-13T19:31:40.492Z,33.23
2022-12-13T19:34:43.679Z,33.41
2022-12-13T19:37:48.142Z,33.87
2022-12-13T19:40:51.692Z,33.19
2022-12-13T19:43:54.826Z,33.83
2022-12-13T19:46:57.903Z,33.70
2022-12-13T19:50:01.056Z,33.36
2022-12-13T19:53:05.504Z,33.62
2022-12-13T19:56:10.901Z,33.20
2022-12-13T19:59:13.950Z,33.65
2022-12-13T20:02:16.973Z,33.22
2022-12-13T20:05:20.584Z,33.86
2022-12-13T20:08:25.116Z,33.89
2022-12-13T20:11:28.220Z,33.77
2022-12-13T20:14:31.205Z,33.70
2022-12-13T20:17:34.287Z,33.16
2022-12-13T20:21:02.507Z,33.62
2022-12-13T20:24:01.959Z,33.61
2022-12-13T20:27:05.249Z,33.27
2022-12-13T20:30:09.861Z,33.73
2022-12-13T20:33:12.836Z,32.99
2022-12-13T20:36:25.808Z,33.19
2022-12-13T20:39:31.059Z,33.97
2022-12-13T20:42:35.482Z,33.07
2022-12-13T20:45:38.518Z,32.94
2022-12-13T20:48:43.096Z,31.44
2022-12-13T20:51:46.116Z,30.45
2022-12-13T20:54:50.597Z,30.07
2022-12-13T20:57:53.643Z,30.33
2022-12-13T21:00:56.875Z,31.43
2022-12-13T21:04:02.011Z,32.39
2022-12-13T21:07:05.033Z,32.54
2022-12-13T21:10:10.808Z,32.93
2022-12-13T21:13:13.981Z,32.85
2022-12-13T21:16:17.486Z,32.32
2022-12-13T21:19:22.489Z,31.67
2022-12-13T21:22:26.641Z,31.37
2022-12-13T21:25:31.079Z,30.44
2022-12-13T21:28:34.099Z,30.79
2022-12-13T21:31:37.978Z,32.16
2022-12-13T21:34:41.059Z,32.05
2022-12-13T21:37:44.033Z,32.85
2022-12-13T21:40:52.841Z,32.73
2022-12-13T21:43:56.285Z,32.95
2022-12-13T21:47:14.563Z,32.72
2022-12-13T21:50:17.757Z,33.05
2022-12-13T21:53:20.810Z,32.54
2022-12-13T21:56:45.282Z,32.24
2022-12-13T21:59:48.274Z,32.02
2022-12-13T22:02:51.280Z,32.25
2022-12-13T22:05:54.356Z,31.88
2022-12-13T22:08:57.391Z,32.28
2022-12-13T22:12:02.183Z,32.14
2022-12-13T22:15:07.624Z,31.60
2022-12-13T22:18:10.804Z,31.75
2022-12-13T22:21:13.801Z,31.94
2022-12-13T22:24:16.894Z,31.71
2022-12-13T22:27:23.939Z,31.90
2022-12-13T22:30:27.265Z,31.35
2022-12-13T22:33:30.334Z,31.33
2022-12-13T22:36:33.506Z,31.46
2022-12-13T22:39:36.545Z,31.72
2022-12-13T22:42:40.955Z,31.44
2022-12-13T22:45:44.065Z,31.58
2022-12-13T22:48:47.349Z,31.56
2022-12-13T22:51:50.569Z,31.66
2022-12-13T22:54:53.567Z,31.53
2022-12-13T22:57:58.014Z,31.83
2022-12-13T23:01:07.399Z,31.74
2022-12-13T23:04:13.105Z,31.69
2022-12-13T23:07:16.135Z,31.29
2022-12-13T23:10:36.700Z,31.50
2022-12-13T23:13:41.085Z,31.37
2022-12-13T23:16:44.528Z,31.37
2022-12-13T23:19:50.057Z,31.25
2022-12-13T23:22:54.092Z,31.40
2022-12-13T23:25:57.121Z,31.63
2022-12-13T23:29:03.919Z,31.48
2022-12-13T23:32:07.131Z,31.50
2022-12-13T23:35:12.620Z,31.12
2022-12-13T23:38:15.616Z,31.46
2022-12-13T23:41:23.606Z,31.43
2022-12-13T23:44:28.252Z,31.17
2022-12-13T23:47:31.241Z,31.09
2022-12-13T23:50:34.253Z,31.51
2022-12-13T23:53:37.633Z,31.04
2022-12-13T23:56:40.688Z,31.24
2022-12-13T23:59:45.089Z,31.29
